Data for 05/01/2015

Time Sea-Level Adjusted Pressure Absolute Pressure Temperature Relative Humidity Dew Point   
(mb) (inHg) (mb) (inHg) (C) (F) (%) (C) (F)
00:05 1021 30.15 850 25.1 7.2 44.9 42 -4.8 23.3
00:10 1021 30.15 850 25.1 7.1 44.7 43 -4.8 23.4
00:15 1021 30.15 850 25.1 6.9 44.4 43 -4.8 23.3
00:20 1021 30.15 850 25.1 6.8 44.2 43 -4.9 23.2
00:25 1021 30.15 850 25.1 6.9 44.4 43 -5 23
00:30 1021 30.15 850 25.1 6.8 44.3 43 -4.9 23.1
00:35 1021 30.15 850 25.1 6.8 44.3 42 -5.1 22.9
00:40 1021 30.15 850 25.1 6.8 44.3 43 -4.8 23.4
00:45 1020 30.12 850 25.1 6.6 43.8 44 -4.7 23.5
00:50 1020 30.12 850 25.1 6.4 43.5 44 -5.1 22.9
00:55 1020 30.12 850 25.1 6.3 43.3 44 -4.9 23.1
01:00 1020 30.12 850 25.1 6.3 43.3 44 -5.2 22.6
01:05 1020 30.12 850 25.1 6.4 43.5 43 -5.3 22.4
01:10 1020 30.12 850 25.1 6.7 44 42 -5.3 22.4
01:15 1020 30.12 850 25.1 6.6 43.9 43 -5.1 22.8
01:20 1020 30.12 849 25.07 6.4 43.5 44 -5 22.9
01:25 1020 30.12 850 25.1 6 42.9 46 -4.6 23.7
01:30 1020 30.12 850 25.1 5.4 41.6 49 -4.4 24.1
01:35 1020 30.12 850 25.1 5.2 41.3 47 -5.2 22.6
01:40 1020 30.12 850 25.1 5.6 42 44 -5.7 21.7
01:45 1020 30.12 850 25.1 6 42.8 44 -5.4 22.3
01:50 1020 30.12 850 25.1 5.9 42.7 45 -5.1 22.9
01:55 1020 30.12 850 25.1 5.7 42.3 46 -4.9 23.1
02:00 1020 30.12 850 25.1 5.6 42.1 46 -5.1 22.9
02:05 1020 30.12 850 25.1 5.7 42.3 42 -6.2 20.8
02:10 1020 30.12 850 25.1 6.1 42.9 42 -6 21.1
02:15 1020 30.12 850 25.1 5.9 42.6 42 -6.2 20.9
02:20 1020 30.12 850 25.1 6.3 43.3 38 -7.1 19.3
02:25 1020 30.12 850 25.1 6.5 43.7 39 -6.4 20.5
02:30 1020 30.12 850 25.1 5.9 42.6 42 -6.2 20.9
02:35 1020 30.12 850 25.1 5.8 42.4 43 -5.7 21.7
02:40 1020 30.12 850 25.1 5.5 42 44 -5.8 21.5
02:45 1020 30.12 850 25.1 5.5 41.9 40 -7 19.4
02:50 1021 30.15 850 25.1 5.6 42.1 45 -5.4 22.3
02:55 1021 30.15 850 25.1 5 41 50 -4.6 23.7
03:00 1021 30.15 850 25.1 4.5 40 52 -4.6 23.7
03:05 1021 30.15 850 25.1 4.1 39.3 53 -4.7 23.5
03:10 1021 30.15 850 25.1 3.8 38.9 52 -5 22.9
03:15 1021 30.15 850 25.1 3.7 38.7 53 -4.9 23.1
03:20 1021 30.15 850 25.1 3.7 38.7 53 -4.9 23.2
03:25 1021 30.15 850 25.1 3.8 38.8 53 -5 22.9
03:30 1021 30.15 850 25.1 3.8 38.8 53 -4.9 23.2
03:35 1021 30.15 850 25.1 3.6 38.5 54 -4.9 23.2
03:40 1021 30.15 850 25.1 3.5 38.3 54 -5 23
03:45 1021 30.15 850 25.1 3.5 38.4 54 -5 23
03:50 1021 30.15 850 25.1 3.4 38.1 54 -5 23
03:55 1021 30.15 850 25.1 3.5 38.3 53 -5.2 22.6
04:00 1021 30.15 850 25.1 3.5 38.4 52 -5.3 22.4
04:05 1021 30.15 850 25.1 3.6 38.4 52 -5.3 22.5
04:10 1021 30.15 850 25.1 3.5 38.3 52 -5.5 22.1
04:15 1021 30.15 850 25.1 3.6 38.6 52 -5.3 22.5
04:20 1021 30.15 850 25.1 3.3 37.9 52 -5.6 22
04:25 1021 30.15 850 25.1 3.4 38.2 49 -6.3 20.6
04:30 1021 30.15 850 25.1 3.8 38.8 49 -6 21.3
04:35 1021 30.15 850 25.1 3.6 38.4 50 -5.8 21.6
04:40 1021 30.15 850 25.1 3.3 38 50 -6.2 20.9
04:45 1021 30.15 850 25.1 3.4 38.2 49 -6.3 20.7
04:50 1021 30.15 850 25.1 3.5 38.2 50 -6 21.2
04:55 1021 30.15 850 25.1 3.4 38.1 50 -5.9 21.3
05:00 1021 30.15 850 25.1 3.3 38 51 -5.9 21.3
05:05 1021 30.15 850 25.1 3.3 38 50 -6.2 20.9
05:10 1021 30.15 850 25.1 3.4 38.1 50 -6 21.2
05:15 1021 30.15 850 25.1 3.3 38 51 -5.9 21.3
05:20 1021 30.15 850 25.1 3.3 38 50 -6.2 20.9
05:25 1021 30.15 850 25.1 3.8 38.9 48 -6.1 20.9
05:30 1020 30.12 850 25.1 3.8 38.8 49 -5.9 21.5
05:35 1021 30.15 850 25.1 3.7 38.6 50 -5.7 21.7
05:40 1021 30.15 850 25.1 3.4 38.2 51 -5.9 21.4
05:45 1021 30.15 850 25.1 3.5 38.2 50 -5.9 21.4
05:50 1021 30.15 850 25.1 3.4 38.2 50 -6.1 21
05:55 1020 30.12 850 25.1 3.6 38.4 48 -6.5 20.3
06:00 1020 30.12 850 25.1 3.9 39 48 -6.2 20.9
06:05 1020 30.12 850 25.1 4 39.2 46 -6.5 20.3
06:10 1021 30.15 850 25.1 4.5 40.1 44 -6.7 19.9
06:15 1020 30.12 850 25.1 4.8 40.7 45 -6.1 21
06:20 1020 30.12 850 25.1 4.9 40.9 44 -6.2 20.9
06:25 1020 30.12 850 25.1 5.4 41.7 44 -5.8 21.6
06:30 1020 30.12 850 25.1 5.6 42 43 -6.1 21
06:35 1020 30.12 850 25.1 5.5 41.9 45 -5.4 22.2
06:40 1020 30.12 850 25.1 5.6 42.1 45 -5.5 22.1
06:45 1020 30.12 850 25.1 6 42.7 42 -6 21.2
06:50 1020 30.12 850 25.1 6.4 43.5 41 -5.8 21.5
06:55 1020 30.12 850 25.1 6.7 44.1 39 -6.4 20.5
07:00 1020 30.12 850 25.1 7.4 45.2 37 -6.5 20.2
07:05 1020 30.12 850 25.1 7.9 46.2 36 -6.2 20.8
07:10 1020 30.12 850 25.1 8.4 47.1 34 -6.7 20
07:15 1020 30.12 850 25.1 9.2 48.6 33 -6.1 21
07:20 1020 30.12 850 25.1 9.9 49.8 33 -5.8 21.5
07:25 1020 30.12 850 25.1 10 50.1 33 -5.4 22.3
07:30 1021 30.15 850 25.1 9.8 49.7 33 -5.7 21.8
07:35 1021 30.15 850 25.1 10 50 31 -6.3 20.6
07:40 1021 30.15 850 25.1 10.2 50.3 30 -6.8 19.7
07:45 1021 30.15 850 25.1 10.9 51.6 28 -6.8 19.7
07:50 1021 30.15 850 25.1 11.3 52.3 30 -5.8 21.6
07:55 1020 30.12 850 25.1 11.4 52.4 31 -5 22.9
08:00 1020 30.12 850 25.1 11.5 52.8 30 -5.4 22.3
08:05 1020 30.12 850 25.1 11.8 53.2 30 -5.4 22.2
08:10 1020 30.12 850 25.1 12.2 53.9 28 -5.6 21.9
08:15 1020 30.12 850 25.1 12.3 54.2 29 -5.4 22.4
08:20 1020 30.12 849 25.07 13 55.4 28 -5.1 22.7
08:25 1020 30.12 849 25.07 12.3 54.1 29 -5.2 22.7
08:30 1020 30.12 849 25.07 13 55.3 27 -5.4 22.2
08:35 1020 30.12 849 25.07 13.5 56.2 26 -5.5 22.2
08:40 1020 30.12 849 25.07 13.9 57.1 25 -5.5 22.1
08:45 1020 30.12 849 25.07 14.2 57.6 25 -5.4 22.3
08:50 1020 30.12 849 25.07 14.1 57.5 25 -5.3 22.4
08:55 1020 30.12 849 25.07 14.4 58 24 -5.6 21.9
09:00 1020 30.12 849 25.07 14.5 58 25 -5.1 22.8
09:05 1020 30.12 849 25.07 14.8 58.6 23 -6.3 20.6
09:10 1020 30.12 849 25.07 15 59.1 23 -6.1 21.1
09:15 1020 30.12 849 25.07 15.3 59.5 22 -6.4 20.5
09:20 1020 30.12 849 25.07 14.9 58.8 23 -6.3 20.7
09:25 1020 30.12 849 25.07 15.1 59.1 22 -6.5 20.3
09:30 1020 30.12 849 25.07 14.8 58.6 23 -5.9 21.4
09:35 1020 30.12 849 25.07 15 59 23 -5.7 21.7
09:40 1020 30.12 849 25.07 14.8 58.6 26 -4.4 24.1
09:45 1020 30.12 849 25.07 15.2 59.4 26 -4.1 24.6
09:50 1020 30.12 849 25.07 15.6 60.1 25 -4.2 24.5
09:55 1020 30.12 849 25.07 16.1 61 23 -4.9 23.2
10:00 1020 30.12 849 25.07 16.5 61.8 20 -6.5 20.2
10:05 1020 30.12 849 25.07 15.6 60.1 23 -5.6 21.9
10:10 1020 30.12 849 25.07 16.3 61.3 21 -5.7 21.7
10:15 1019 30.09 849 25.07 16.5 61.8 20 -6.2 20.8
10:20 1019 30.09 849 25.07 16 60.9 20 -6.7 20
10:25 1019 30.09 849 25.07 16.9 62.4 22 -4.8 23.4
10:30 1019 30.09 849 25.07 17.2 62.9 20 -6 21.1
10:35 1019 30.09 848 25.04 17.2 63 19 -6.7 20
10:40 1019 30.09 848 25.04 17 62.5 19 -7.1 19.3
10:45 1019 30.09 848 25.04 17.4 63.3 18 -6.7 19.9
10:50 1019 30.09 848 25.04 17.8 64 18 -6.7 19.9
10:55 1019 30.09 848 25.04 17.5 63.6 18 -6.8 19.7
11:00 1019 30.09 848 25.04 17.7 63.8 19 -5.8 21.6
11:05 1019 30.09 848 25.04 18.6 65.5 17 -6.9 19.7
11:10 1019 30.09 848 25.04 17.2 63 19 -6.8 19.7
11:15 1019 30.09 848 25.04 17.5 63.4 18 -7 19.4
11:20 1019 30.09 848 25.04 17.9 64.2 18 -6.7 19.9
11:25 1019 30.09 848 25.04 18 64.4 18 -6.4 20.5
11:30 1018 30.06 848 25.04 17.9 64.3 19 -5.9 21.4
11:35 1018 30.06 848 25.04 18.5 65.2 18 -6.2 20.8
11:40 1018 30.06 848 25.04 19 66.2 18 -6.1 21
11:45 1018 30.06 847 25.01 18.9 65.9 18 -5.9 21.4
11:50 1018 30.06 847 25.01 19.1 66.4 18 -6 21.2
11:55 1018 30.06 847 25.01 19.3 66.8 18 -5.7 21.8
12:00 1018 30.06 847 25.01 19.1 66.4 17 -6.8 19.8
12:05 1018 30.06 847 25.01 18.9 66 18 -6.2 20.9
12:10 1018 30.06 847 25.01 19.4 67 17 -6.2 20.8
12:15 1018 30.06 847 25.01 19.1 66.4 18 -5.3 22.5
12:20 1018 30.06 847 25.01 19.6 67.4 18 -5 23.1
12:25 1018 30.06 847 25.01 20.4 68.6 20 -3.1 26.4
12:30 1017 30.03 847 25.01 20.2 68.4 17 -5.7 21.8
12:35 1017 30.03 847 25.01 20.3 68.5 17 -5.3 22.5
12:40 1017 30.03 847 25.01 19.4 66.9 18 -5.1 22.8
12:45 1017 30.03 846 24.98 19.8 67.6 18 -5.4 22.3
12:50 1017 30.03 846 24.98 20.3 68.5 16 -6.4 20.4
12:55 1017 30.03 846 24.98 20.1 68.3 18 -4.5 23.8
13:00 1017 30.03 846 24.98 19.9 67.8 18 -5.2 22.7
13:05 1017 30.03 846 24.98 20.2 68.4 15 -7.4 18.7
13:10 1017 30.03 846 24.98 20.6 69.2 14 -7.5 18.5
13:15 1017 30.03 846 24.98 20.9 69.7 15 -6.4 20.5
13:20 1017 30.03 846 24.98 21 69.9 14 -6.9 19.5
13:25 1016 30 846 24.98 20.9 69.6 14 -7.2 19
13:30 1016 30 846 24.98 21.1 69.9 15 -6.5 20.2
13:35 1016 30 846 24.98 20.4 68.8 15 -6.8 19.8
13:40 1016 30 845 24.95 21.4 70.5 15 -6.6 20.2
13:45 1016 30 845 24.95 22.2 71.9 14 -6.6 20.2
13:50 1016 30 845 24.95 21.9 71.3 15 -6 21.2
13:55 1016 30 845 24.95 22.1 71.8 15 -5.6 21.9
14:00 1016 30 845 24.95 22.1 71.8 14 -6.9 19.6
14:05 1016 30 845 24.95 22.6 72.6 14 -6.4 20.5
14:10 1016 30 845 24.95 22.8 73.1 12 -8.2 17.3
14:15 1016 30 845 24.95 22.5 72.4 11 -8.8 16.2
14:20 1015 29.97 845 24.95 22.3 72.1 11 -9.7 14.5
14:25 1015 29.97 845 24.95 22.4 72.4 10 -10.2 13.6
14:30 1015 29.97 845 24.95 22.3 72.2 11 -9 15.8
14:35 1015 29.97 845 24.95 22.2 72 11 -9.6 14.7
14:40 1015 29.97 844 24.92 22.2 71.9 11 -10 13.9
14:45 1015 29.97 844 24.92 21.8 71.2 11 -9.9 14.2
14:50 1015 29.97 844 24.92 21.7 71.1 12 -9.2 15.5
14:55 1015 29.97 844 24.92 21.7 71 10 -10.7 12.8
15:00 1015 29.97 844 24.92 21.7 71.1 11 -10.4 13.3
15:05 1015 29.97 844 24.92 21.7 71 10 -11.3 11.6
15:10 1015 29.97 844 24.92 21.5 70.7 13 -8.1 17.4
15:15 1015 29.97 844 24.92 21.8 71.2 13 -7.9 17.7
15:20 1015 29.97 844 24.92 21.8 71.2 13 -8 17.5
15:25 1015 29.97 844 24.92 21.6 70.8 13 -8.1 17.4
15:30 1015 29.97 844 24.92 21.1 69.9 13 -8.5 16.7
15:35 1015 29.97 844 24.92 21.1 70 13 -8.5 16.8
15:40 1015 29.97 844 24.92 21.4 70.6 13 -8.1 17.5
15:45 1015 29.97 844 24.92 21.7 71.1 11 -9.5 14.9
15:50 1015 29.97 844 24.92 20.9 69.7 12 -9.5 14.9
15:55 1014 29.94 844 24.92 20.6 69 13 -9.1 15.7
16:00 1014 29.94 844 24.92 20.7 69.2 13 -8.4 16.8
16:05 1014 29.94 844 24.92 20.4 68.6 13 -8.7 16.4
16:10 1014 29.94 844 24.92 20.2 68.4 13 -9 15.9
16:15 1014 29.94 844 24.92 20.2 68.3 13 -8.6 16.6
16:20 1014 29.94 844 24.92 19.9 67.8 13 -8.9 16
16:25 1014 29.94 844 24.92 19.9 67.7 14 -8.7 16.4
16:30 1014 29.94 844 24.92 19.1 66.4 15 -8.5 16.8
16:35 1014 29.94 844 24.92 19.2 66.6 13 -9.4 15.1
16:40 1014 29.94 844 24.92 19.3 66.8 14 -8.8 16.2
16:45 1014 29.94 843 24.89 19.3 66.7 14 -8.7 16.3
16:50 1014 29.94 843 24.89 19.1 66.4 14 -9.2 15.4
16:55 1014 29.94 843 24.89 18.9 66 14 -9.3 15.3
17:00 1014 29.94 844 24.92 18.8 65.9 14 -9.5 14.9
17:05 1014 29.94 844 24.92 18.7 65.7 13 -9.9 14.3
17:10 1014 29.94 844 24.92 18.9 66 14 -9.2 15.5
17:15 1015 29.97 844 24.92 19.2 66.6 14 -8.4 16.8
17:20 1015 29.97 844 24.92 19.5 67 13 -9.2 15.4
17:25 1015 29.97 844 24.92 19.6 67.3 13 -9.1 15.6
17:30 1015 29.97 844 24.92 19.5 67.1 13 -9.6 14.7
17:35 1014 29.94 844 24.92 19.4 66.9 13 -9.7 14.6
17:40 1014 29.94 844 24.92 19.3 66.7 14 -9 15.9
17:45 1014 29.94 844 24.92 19.2 66.5 15 -8.3 17
17:50 1014 29.94 844 24.92 19 66.2 14 -9.1 15.6
17:55 1014 29.94 844 24.92 19.1 66.4 15 -8.4 16.8
18:00 1014 29.94 844 24.92 19.1 66.4 15 -8.1 17.5
18:05 1014 29.94 844 24.92 19.1 66.3 15 -8 17.6
18:10 1014 29.94 843 24.89 19.1 66.4 15 -7.8 18
18:15 1014 29.94 843 24.89 19 66.2 15 -7.8 18
18:20 1014 29.94 843 24.89 18.8 65.8 16 -7.1 19.2
18:25 1014 29.94 843 24.89 18.6 65.5 16 -8 17.6
18:30 1014 29.94 843 24.89 18.5 65.2 15 -8.7 16.4
18:35 1014 29.94 843 24.89 18.4 65 15 -8.4 16.9
18:40 1014 29.94 843 24.89 18.1 64.5 17 -7 19.5
18:45 1014 29.94 843 24.89 17.6 63.7 20 -5.5 22.1
18:50 1014 29.94 843 24.89 17.1 62.8 25 -3.1 26.3
18:55 1014 29.94 843 24.89 16.9 62.3 24 -3.7 25.3
19:00 1014 29.94 843 24.89 16.8 62.2 23 -4.4 24.1
19:05 1014 29.94 843 24.89 16.7 62.1 22 -5.1 22.9
19:10 1014 29.94 843 24.89 16.5 61.7 20 -6.3 20.6
19:15 1014 29.94 843 24.89 16.5 61.7 21 -6 21.1
19:20 1014 29.94 843 24.89 16.2 61.2 23 -4.7 23.5
19:25 1014 29.94 843 24.89 15.7 60.2 26 -3.7 25.3
19:30 1014 29.94 843 24.89 15.2 59.4 27 -3.7 25.3
19:35 1014 29.94 843 24.89 14.8 58.7 26 -4.2 24.4
19:40 1014 29.94 843 24.89 14.5 58 30 -2.7 27.1
19:45 1014 29.94 843 24.89 14.3 57.7 29 -3.3 26.1
19:50 1014 29.94 843 24.89 13.6 56.5 33 -2.3 27.9
19:55 1014 29.94 843 24.89 13.2 55.8 32 -3.1 26.4
20:00 1014 29.94 843 24.89 13 55.4 32 -3.4 25.8
20:05 1014 29.94 843 24.89 13 55.3 29 -4.4 24.1
20:10 1014 29.94 843 24.89 12.9 55.3 28 -5.2 22.7
20:15 1014 29.94 843 24.89 13.1 55.6 28 -4.8 23.4
20:20 1014 29.94 843 24.89 13 55.4 28 -4.9 23.3
20:25 1014 29.94 843 24.89 12.8 55.1 28 -5.4 22.4
20:30 1014 29.94 843 24.89 12.9 55.2 27 -5.7 21.7
20:35 1014 29.94 843 24.89 12.9 55.1 27 -5.5 22.1
20:40 1014 29.94 843 24.89 12.7 54.9 27 -5.5 22
20:45 1014 29.94 843 24.89 12.7 54.9 27 -5.8 21.5
20:50 1014 29.94 843 24.89 12.6 54.7 27 -5.8 21.6
20:55 1014 29.94 844 24.92 12.4 54.3 28 -5.8 21.6
21:00 1014 29.94 844 24.92 12.3 54.1 28 -5.9 21.4
21:05 1014 29.94 844 24.92 12 53.7 28 -6.1 21
21:10 1014 29.94 844 24.92 11.9 53.3 28 -6 21.2
21:15 1014 29.94 844 24.92 11.8 53.2 29 -5.7 21.7
21:20 1014 29.94 844 24.92 11.3 52.4 29 -5.9 21.3
21:25 1014 29.94 844 24.92 11.3 52.3 29 -6.1 21
21:30 1014 29.94 844 24.92 11.1 51.9 30 -6 21.1
21:35 1014 29.94 844 24.92 10.9 51.7 30 -6.1 21
21:40 1014 29.94 843 24.89 11.2 52.2 29 -6.3 20.7
21:45 1014 29.94 843 24.89 11 51.8 31 -5.6 22
21:50 1014 29.94 843 24.89 10.8 51.4 30 -5.9 21.3
21:55 1014 29.94 843 24.89 10.9 51.5 29 -6.5 20.4
22:00 1014 29.94 843 24.89 10.8 51.4 31 -5.8 21.6
22:05 1014 29.94 843 24.89 10.5 50.8 31 -6 21.2
22:10 1014 29.94 843 24.89 10.3 50.5 31 -6.2 20.9
22:15 1014 29.94 843 24.89 10.2 50.4 32 -5.9 21.4
22:20 1014 29.94 844 24.92 10.3 50.5 31 -6.2 20.8
22:25 1014 29.94 844 24.92 10.6 51 28 -7 19.4
22:30 1014 29.94 844 24.92 10.9 51.6 29 -6.6 20.1
22:35 1014 29.94 844 24.92 10.9 51.5 29 -6.4 20.4
22:40 1014 29.94 844 24.92 10.6 51 30 -6.1 20.9
22:45 1014 29.94 844 24.92 10.2 50.3 31 -6 21.2
22:50 1014 29.94 844 24.92 10.1 50.1 31 -6.2 20.9
22:55 1014 29.94 844 24.92 10 50 32 -5.9 21.4
23:00 1014 29.94 844 24.92 9.9 49.8 33 -5.6 22
23:05 1014 29.94 844 24.92 9.5 49.2 36 -4.9 23.1
23:10 1014 29.94 844 24.92 9.3 48.8 33 -6.3 20.7
23:15 1014 29.94 844 24.92 9.7 49.4 32 -6.2 20.9
23:20 1014 29.94 844 24.92 9.6 49.2 34 -5.7 21.8
23:25 1014 29.94 844 24.92 9.2 48.5 35 -5.4 22.2
23:30 1014 29.94 844 24.92 8.7 47.6 37 -5.3 22.5
23:35 1014 29.94 844 24.92 8.5 47.3 38 -5.1 22.8
23:40 1014 29.94 844 24.92 8.3 47 37 -5.5 22.1
23:45 1014 29.94 844 24.92 8.5 47.4 36 -5.8 21.6
23:50 1014 29.94 844 24.92 8.7 47.7 35 -5.9 21.4
23:55 1014 29.94 844 24.92 8.8 47.9 35 -5.9 21.3
24:00 1014 29.94 844 24.92 8.8 47.8 35 -5.9 21.3